Time;durP1;ratioP1;P1;durP2;ratioP2;P2;SDS_P1;SDS_P2;PMS_P1;PMS_P2;Temp;Humidity;BMP_temperature;BMP_pressure;BME280_temperature;BME280_humidity;BME280_pressure;Samples;Min_cycle;Max_cycle;Signal;HPM_P1;HPM_P2
2024/01/18 00:00:56;;;;;;;13.07;7.27;;;;;6.30;93554.00;;;;8310039;28;20221;-70
2024/01/18 00:04:59;;;;;;;15.23;8.43;;;;;6.40;93554.00;;;;8314848;28;20270;-69
2024/01/18 00:09:02;;;;;;;14.60;7.70;;;;;6.40;93543.00;;;;8318450;28;20718;-69
2024/01/18 00:13:07;;;;;;;16.47;8.30;;;;;6.40;93546.00;;;;8316432;28;20205;-69
2024/01/18 00:17:10;;;;;;;15.60;8.33;;;;;6.30;93552.00;;;;8317568;28;20227;-69
2024/01/18 00:21:13;;;;;;;14.37;8.53;;;;;6.30;93558.00;;;;8314574;28;20308;-70
2024/01/18 00:25:16;;;;;;;16.10;7.97;;;;;6.40;93557.00;;;;8317071;28;20197;-70
2024/01/18 00:29:21;;;;;;;15.07;7.47;;;;;6.50;93553.00;;;;8315435;28;20304;-67
2024/01/18 00:33:25;;;;;;;12.60;6.97;;;;;6.70;93562.00;;;;8315171;28;20201;-67
2024/01/18 00:37:28;;;;;;;11.27;6.67;;;;;6.80;93569.00;;;;8316665;28;20883;-67
2024/01/18 00:41:32;;;;;;;8.90;5.87;;;;;6.90;93565.00;;;;8317546;28;20239;-67
2024/01/18 00:45:37;;;;;;;12.33;6.90;;;;;6.90;93563.00;;;;8313201;28;20250;-67
2024/01/18 00:49:40;;;;;;;11.77;6.40;;;;;6.90;93572.00;;;;8312619;28;20194;-66
2024/01/18 00:53:43;;;;;;;9.90;6.33;;;;;7.00;93563.00;;;;8316806;28;22077;-67
2024/01/18 00:57:46;;;;;;;11.50;6.17;;;;;7.10;93577.00;;;;8316164;28;20723;-67
2024/01/18 01:01:51;;;;;;;11.20;6.43;;;;;7.10;93572.00;;;;8313941;28;20248;-67
2024/01/18 01:05:54;;;;;;;12.33;6.53;;;;;7.20;93577.00;;;;8317893;28;20297;-67
2024/01/18 01:09:57;;;;;;;8.20;5.13;;;;;7.20;93580.00;;;;8318455;28;20936;-67
2024/01/18 01:14:00;;;;;;;7.20;5.10;;;;;7.20;93596.00;;;;8315744;28;20205;-67
2024/01/18 01:18:05;;;;;;;9.23;5.13;;;;;7.30;93597.00;;;;8313795;28;20267;-68
2024/01/18 01:22:09;;;;;;;8.43;5.20;;;;;7.30;93608.00;;;;8315570;28;21424;-69
2024/01/18 01:26:13;;;;;;;9.23;5.10;;;;;7.40;93614.00;;;;8315439;28;20209;-70
2024/01/18 01:30:17;;;;;;;8.73;5.10;;;;;7.40;93610.00;;;;8316319;28;20335;-70
2024/01/18 01:34:21;;;;;;;8.93;5.27;;;;;7.30;93616.00;;;;8313326;28;20689;-70
2024/01/18 01:38:24;;;;;;;9.27;5.13;;;;;7.30;93618.00;;;;8315913;28;20692;-70
2024/01/18 01:42:27;;;;;;;8.10;5.30;;;;;7.40;93622.00;;;;8315745;28;21186;-68
2024/01/18 01:46:31;;;;;;;8.27;4.80;;;;;7.50;93621.00;;;;8314455;28;20205;-67
2024/01/18 01:50:35;;;;;;;6.27;4.50;;;;;7.50;93619.00;;;;8313722;28;21143;-67
2024/01/18 01:54:39;;;;;;;6.33;4.60;;;;;7.60;93619.00;;;;8290735;28;20745;-67
2024/01/18 01:58:42;;;;;;;6.17;4.47;;;;;7.70;93621.00;;;;8292268;28;20283;-67
2024/01/18 02:02:46;;;;;;;7.97;5.13;;;;;7.70;93621.00;;;;8291283;28;20709;-68
2024/01/18 02:06:52;;;;;;;4.80;4.13;;;;;7.70;93619.00;;;;8292672;28;20202;-67
2024/01/18 02:10:55;;;;;;;5.93;4.50;;;;;7.80;93619.00;;;;8289909;28;20221;-68
2024/01/18 02:14:59;;;;;;;5.05;3.88;;;;;7.90;93609.00;;;;8292784;28;20209;-69
2024/01/18 02:19:02;;;;;;;6.90;5.00;;;;;7.90;93608.00;;;;8291487;28;20322;-69
2024/01/18 02:23:10;;;;;;;6.18;4.30;;;;;7.90;93610.00;;;;8293679;28;20288;-69
2024/01/18 02:27:14;;;;;;;8.83;5.13;;;;;7.90;93617.00;;;;8290928;28;20219;-67
2024/01/18 02:31:17;;;;;;;8.18;3.80;;;;;7.90;93605.00;;;;8289780;28;20256;-68
2024/01/18 02:35:21;;;;;;;8.40;5.27;;;;;7.90;93631.00;;;;8290680;28;20998;-69
2024/01/18 02:39:24;;;;;;;6.43;5.10;;;;;7.90;93621.00;;;;8290600;28;20194;-70
2024/01/18 02:43:29;;;;;;;7.90;4.47;;;;;7.90;93619.00;;;;8291275;28;20611;-70
2024/01/18 02:47:35;;;;;;;7.25;4.75;;;;;7.90;93619.00;;;;8291309;28;20296;-69
2024/01/18 02:51:38;;;;;;;9.17;4.60;;;;;7.90;93611.00;;;;8290429;28;20233;-70
2024/01/18 02:55:41;;;;;;;5.20;4.10;;;;;7.90;93616.00;;;;8291290;28;20274;-71
2024/01/18 02:59:46;;;;;;;8.07;4.47;;;;;8.00;93612.00;;;;8290314;28;20208;-68
